KOVL

Details ICAO KOVL
Name OLIVIA RGNL
Region United States
Timezone America/Chicago (UTC-5.0)
Plans Departing 28
Arriving 10
Stats Elevation 1,076 ft / 328 m (AMSL)
Location 44.778579° -95.032774°
Runways 1
Magnetic Variation 1.626° E
Sunrise 2018-05-24 10:44:24 UTC / 2018-05-24 05:44:24 Local
Sunset 2018-05-25 01:52:28 UTC / 2018-05-24 20:52:28 Local
Advertisement - Login to hide

Runways

ID Width Length Bearing (true) Bearing (mag) Surface Threshold Offset Overrun Length
11 75 ft / 23 m 3,493 ft / 1,065 m 118.18° 116.55° Asphalt 0 ft / 0 m 0 ft / 0 m
29 75 ft / 23 m 3,493 ft / 1,065 m 298.18° 296.55° Asphalt 0 ft / 0 m 0 ft / 0 m

Map

Weather


0- 5 10 15 20 25 30 35+ Temperature / ° C

Clouds and Precipitation
Forecast for 2018-05-25 00:00 UTC. Updated an hour ago

Ground ~20,000 ft ~40,000 ft Winds

METAR

KOVL 250015Z AUTO 13006KT 10SM CLR 23/20 A2984 RMK AO2 LTG DSNT E W AND NW

TAF

Not found

Frequencies

Recorded 119.27 MHz AWOS 3
Unicom 122.80 MHz CTAF/UNICOM
Warning: Do not use this data for real-world aviation or navigation. No guarantee of current accuracy is given.